sensor_id;sensor_type;location;lat;lon;timestamp;temperature;humidity
33594;DHT22;19920;52.242;20.940;2023-06-22T00:01:53;20.10;99.90
33594;DHT22;19920;52.242;20.940;2023-06-22T00:04:19;20.00;99.90
33594;DHT22;19920;52.242;20.940;2023-06-22T00:06:44;20.00;99.90
33594;DHT22;19920;52.242;20.940;2023-06-22T00:09:10;20.00;99.90
33594;DHT22;19920;52.242;20.940;2023-06-22T00:11:38;20.00;99.90
33594;DHT22;19920;52.242;20.940;2023-06-22T00:14:05;20.00;99.90
33594;DHT22;19920;52.242;20.940;2023-06-22T00:16:34;19.90;99.90
33594;DHT22;19920;52.242;20.940;2023-06-22T00:19:00;19.90;99.90
33594;DHT22;19920;52.242;20.940;2023-06-22T00:21:26;19.90;99.90
33594;DHT22;19920;52.242;20.940;2023-06-22T00:23:52;19.90;99.90
33594;DHT22;19920;52.242;20.940;2023-06-22T00:26:18;19.90;99.90
33594;DHT22;19920;52.242;20.940;2023-06-22T00:28:44;19.90;99.90
33594;DHT22;19920;52.242;20.940;2023-06-22T00:31:09;19.80;99.90
33594;DHT22;19920;52.242;20.940;2023-06-22T00:33:35;19.90;99.90
33594;DHT22;19920;52.242;20.940;2023-06-22T00:36:01;19.80;99.90
33594;DHT22;19920;52.242;20.940;2023-06-22T00:38:28;19.80;99.90
33594;DHT22;19920;52.242;20.940;2023-06-22T00:40:54;19.80;99.90
33594;DHT22;19920;52.242;20.940;2023-06-22T00:43:19;19.80;99.90
33594;DHT22;19920;52.242;20.940;2023-06-22T00:45:45;19.80;99.90
33594;DHT22;19920;52.242;20.940;2023-06-22T00:48:12;19.80;99.90
33594;DHT22;19920;52.242;20.940;2023-06-22T00:50:38;19.80;99.90
33594;DHT22;19920;52.242;20.940;2023-06-22T00:53:06;19.80;99.90
33594;DHT22;19920;52.242;20.940;2023-06-22T00:55:35;19.80;99.90
33594;DHT22;19920;52.242;20.940;2023-06-22T00:58:03;19.80;99.90
33594;DHT22;19920;52.242;20.940;2023-06-22T01:00:31;19.80;99.90
33594;DHT22;19920;52.242;20.940;2023-06-22T01:02:58;19.80;99.90
33594;DHT22;19920;52.242;20.940;2023-06-22T01:05:23;19.80;99.90
33594;DHT22;19920;52.242;20.940;2023-06-22T01:11:03;19.80;99.90
33594;DHT22;19920;52.242;20.940;2023-06-22T01:16:28;19.80;99.90
33594;DHT22;19920;52.242;20.940;2023-06-22T01:18:56;19.80;99.90
33594;DHT22;19920;52.242;20.940;2023-06-22T01:21:27;19.70;99.90
33594;DHT22;19920;52.242;20.940;2023-06-22T01:24:02;19.80;99.90
33594;DHT22;19920;52.242;20.940;2023-06-22T01:29:11;19.80;99.90
33594;DHT22;19920;52.242;20.940;2023-06-22T01:31:39;19.70;99.90
33594;DHT22;19920;52.242;20.940;2023-06-22T01:34:07;19.70;99.90
33594;DHT22;19920;52.242;20.940;2023-06-22T01:36:34;19.70;99.90
33594;DHT22;19920;52.242;20.940;2023-06-22T01:39:02;19.70;99.90
33594;DHT22;19920;52.242;20.940;2023-06-22T01:41:34;19.70;99.90
33594;DHT22;19920;52.242;20.940;2023-06-22T01:44:01;19.70;99.90
33594;DHT22;19920;52.242;20.940;2023-06-22T01:46:28;19.60;99.90
33594;DHT22;19920;52.242;20.940;2023-06-22T01:48:54;19.60;99.90
33594;DHT22;19920;52.242;20.940;2023-06-22T01:51:20;19.60;99.90
33594;DHT22;19920;52.242;20.940;2023-06-22T01:53:46;19.60;99.90
33594;DHT22;19920;52.242;20.940;2023-06-22T01:56:13;19.60;99.90
33594;DHT22;19920;52.242;20.940;2023-06-22T01:58:48;19.50;99.90
33594;DHT22;19920;52.242;20.940;2023-06-22T02:01:20;19.60;99.90
33594;DHT22;19920;52.242;20.940;2023-06-22T02:03:57;19.50;99.90
33594;DHT22;19920;52.242;20.940;2023-06-22T02:06:31;19.50;99.90
33594;DHT22;19920;52.242;20.940;2023-06-22T02:09:02;19.50;99.90
33594;DHT22;19920;52.242;20.940;2023-06-22T02:11:31;19.60;99.90
33594;DHT22;19920;52.242;20.940;2023-06-22T02:13:58;19.60;99.90
33594;DHT22;19920;52.242;20.940;2023-06-22T02:16:25;19.70;99.90
33594;DHT22;19920;52.242;20.940;2023-06-22T02:18:55;19.70;99.90
33594;DHT22;19920;52.242;20.940;2023-06-22T02:21:24;19.70;99.90
33594;DHT22;19920;52.242;20.940;2023-06-22T02:23:49;19.70;99.90
33594;DHT22;19920;52.242;20.940;2023-06-22T02:26:16;19.70;99.90
33594;DHT22;19920;52.242;20.940;2023-06-22T02:28:42;19.70;99.90
33594;DHT22;19920;52.242;20.940;2023-06-22T02:31:08;19.70;99.90
33594;DHT22;19920;52.242;20.940;2023-06-22T02:33:34;19.80;99.90
33594;DHT22;19920;52.242;20.940;2023-06-22T02:36:00;19.80;99.90
33594;DHT22;19920;52.242;20.940;2023-06-22T02:38:25;19.80;99.90
33594;DHT22;19920;52.242;20.940;2023-06-22T02:40:51;19.70;99.90
33594;DHT22;19920;52.242;20.940;2023-06-22T02:43:17;19.70;99.90
33594;DHT22;19920;52.242;20.940;2023-06-22T02:45:42;19.70;99.90
33594;DHT22;19920;52.242;20.940;2023-06-22T02:48:08;19.80;99.90
33594;DHT22;19920;52.242;20.940;2023-06-22T02:50:34;19.70;99.90
33594;DHT22;19920;52.242;20.940;2023-06-22T02:52:59;19.60;99.90
33594;DHT22;19920;52.242;20.940;2023-06-22T02:55:25;19.60;99.90
33594;DHT22;19920;52.242;20.940;2023-06-22T02:57:51;19.50;99.90
33594;DHT22;19920;52.242;20.940;2023-06-22T03:00:19;19.60;99.90
33594;DHT22;19920;52.242;20.940;2023-06-22T03:02:48;19.50;99.90
33594;DHT22;19920;52.242;20.940;2023-06-22T03:05:14;19.60;99.90
33594;DHT22;19920;52.242;20.940;2023-06-22T03:07:44;19.50;99.90
33594;DHT22;19920;52.242;20.940;2023-06-22T03:10:10;19.50;99.90
33594;DHT22;19920;52.242;20.940;2023-06-22T03:12:40;19.60;99.90
33594;DHT22;19920;52.242;20.940;2023-06-22T03:15:07;19.60;99.90
33594;DHT22;19920;52.242;20.940;2023-06-22T03:17:33;19.60;99.90
33594;DHT22;19920;52.242;20.940;2023-06-22T03:19:59;19.60;99.90
33594;DHT22;19920;52.242;20.940;2023-06-22T03:22:25;19.60;99.90
33594;DHT22;19920;52.242;20.940;2023-06-22T03:24:51;19.60;99.90
33594;DHT22;19920;52.242;20.940;2023-06-22T03:27:16;19.60;99.90
33594;DHT22;19920;52.242;20.940;2023-06-22T03:29:42;19.60;99.90
33594;DHT22;19920;52.242;20.940;2023-06-22T03:32:08;19.70;99.90
33594;DHT22;19920;52.242;20.940;2023-06-22T03:34:33;19.70;99.90
33594;DHT22;19920;52.242;20.940;2023-06-22T03:37:01;19.60;99.90
33594;DHT22;19920;52.242;20.940;2023-06-22T03:39:27;19.60;99.90
33594;DHT22;19920;52.242;20.940;2023-06-22T03:41:52;19.60;99.90
33594;DHT22;19920;52.242;20.940;2023-06-22T03:44:18;19.70;99.90
33594;DHT22;19920;52.242;20.940;2023-06-22T03:46:43;19.70;99.90
33594;DHT22;19920;52.242;20.940;2023-06-22T03:49:09;19.70;99.90
33594;DHT22;19920;52.242;20.940;2023-06-22T03:51:35;19.70;99.90
33594;DHT22;19920;52.242;20.940;2023-06-22T03:54:00;19.80;99.90
33594;DHT22;19920;52.242;20.940;2023-06-22T03:56:26;19.80;99.90
33594;DHT22;19920;52.242;20.940;2023-06-22T03:58:51;19.80;99.90
33594;DHT22;19920;52.242;20.940;2023-06-22T04:01:17;19.80;99.90
33594;DHT22;19920;52.242;20.940;2023-06-22T04:03:43;19.70;99.90
33594;DHT22;19920;52.242;20.940;2023-06-22T04:06:08;19.80;99.90
33594;DHT22;19920;52.242;20.940;2023-06-22T04:08:34;19.90;99.90
33594;DHT22;19920;52.242;20.940;2023-06-22T04:11:00;19.90;99.90
33594;DHT22;19920;52.242;20.940;2023-06-22T04:13:25;19.90;99.90
33594;DHT22;19920;52.242;20.940;2023-06-22T04:15:51;19.90;99.90
33594;DHT22;19920;52.242;20.940;2023-06-22T04:18:17;19.90;99.90
33594;DHT22;19920;52.242;20.940;2023-06-22T04:20:42;20.00;99.90
33594;DHT22;19920;52.242;20.940;2023-06-22T04:23:12;20.00;99.90
33594;DHT22;19920;52.242;20.940;2023-06-22T04:25:39;20.00;99.90
33594;DHT22;19920;52.242;20.940;2023-06-22T04:28:04;20.10;99.90
33594;DHT22;19920;52.242;20.940;2023-06-22T04:30:32;20.10;99.90
33594;DHT22;19920;52.242;20.940;2023-06-22T04:32:57;20.30;99.90
33594;DHT22;19920;52.242;20.940;2023-06-22T04:35:24;20.30;99.90
33594;DHT22;19920;52.242;20.940;2023-06-22T04:37:50;20.30;99.90
33594;DHT22;19920;52.242;20.940;2023-06-22T04:40:21;20.30;99.90
33594;DHT22;19920;52.242;20.940;2023-06-22T04:42:47;20.40;99.90
33594;DHT22;19920;52.242;20.940;2023-06-22T04:45:18;20.40;99.90
33594;DHT22;19920;52.242;20.940;2023-06-22T04:47:44;20.30;99.90
33594;DHT22;19920;52.242;20.940;2023-06-22T04:50:11;20.30;99.90
33594;DHT22;19920;52.242;20.940;2023-06-22T04:52:37;20.40;99.90
33594;DHT22;19920;52.242;20.940;2023-06-22T04:55:03;20.50;99.90
33594;DHT22;19920;52.242;20.940;2023-06-22T04:57:29;20.50;99.90
33594;DHT22;19920;52.242;20.940;2023-06-22T04:59:59;20.50;99.90
33594;DHT22;19920;52.242;20.940;2023-06-22T05:02:36;20.60;99.90
33594;DHT22;19920;52.242;20.940;2023-06-22T05:05:03;20.50;99.90
33594;DHT22;19920;52.242;20.940;2023-06-22T05:07:33;20.50;99.90
33594;DHT22;19920;52.242;20.940;2023-06-22T05:09:59;20.60;99.90
33594;DHT22;19920;52.242;20.940;2023-06-22T05:12:25;20.70;99.90
33594;DHT22;19920;52.242;20.940;2023-06-22T05:14:50;20.80;99.90
33594;DHT22;19920;52.242;20.940;2023-06-22T05:17:16;20.80;99.90
33594;DHT22;19920;52.242;20.940;2023-06-22T05:19:44;20.80;99.90
33594;DHT22;19920;52.242;20.940;2023-06-22T05:22:16;20.80;99.90
33594;DHT22;19920;52.242;20.940;2023-06-22T05:24:42;20.90;99.90
33594;DHT22;19920;52.242;20.940;2023-06-22T05:27:09;21.00;99.90
33594;DHT22;19920;52.242;20.940;2023-06-22T05:29:34;20.90;99.90
33594;DHT22;19920;52.242;20.940;2023-06-22T05:32:00;20.90;99.90
33594;DHT22;19920;52.242;20.940;2023-06-22T05:34:26;20.90;99.90
33594;DHT22;19920;52.242;20.940;2023-06-22T05:36:52;20.90;99.90
33594;DHT22;19920;52.242;20.940;2023-06-22T05:39:17;21.00;99.90
33594;DHT22;19920;52.242;20.940;2023-06-22T05:41:45;21.00;99.90
33594;DHT22;19920;52.242;20.940;2023-06-22T05:44:11;21.10;99.90
33594;DHT22;19920;52.242;20.940;2023-06-22T05:46:40;21.10;99.90
33594;DHT22;19920;52.242;20.940;2023-06-22T05:49:06;21.10;99.90
33594;DHT22;19920;52.242;20.940;2023-06-22T05:51:31;21.20;99.90
33594;DHT22;19920;52.242;20.940;2023-06-22T05:53:57;21.20;99.90
33594;DHT22;19920;52.242;20.940;2023-06-22T05:56:22;21.20;99.90
33594;DHT22;19920;52.242;20.940;2023-06-22T05:58:48;21.20;99.90
33594;DHT22;19920;52.242;20.940;2023-06-22T06:01:14;21.20;99.90
33594;DHT22;19920;52.242;20.940;2023-06-22T06:03:41;21.30;99.90
33594;DHT22;19920;52.242;20.940;2023-06-22T06:06:10;21.40;99.90
33594;DHT22;19920;52.242;20.940;2023-06-22T06:08:39;21.50;99.90
33594;DHT22;19920;52.242;20.940;2023-06-22T06:11:05;21.50;99.90
33594;DHT22;19920;52.242;20.940;2023-06-22T06:13:31;21.40;99.90
33594;DHT22;19920;52.242;20.940;2023-06-22T06:15:57;21.50;99.90
33594;DHT22;19920;52.242;20.940;2023-06-22T06:18:22;21.60;99.90
33594;DHT22;19920;52.242;20.940;2023-06-22T06:20:48;21.60;99.90
33594;DHT22;19920;52.242;20.940;2023-06-22T06:23:14;21.60;99.90
33594;DHT22;19920;52.242;20.940;2023-06-22T06:25:40;21.70;99.90
33594;DHT22;19920;52.242;20.940;2023-06-22T06:28:06;21.80;99.90
33594;DHT22;19920;52.242;20.940;2023-06-22T06:30:32;21.90;99.90
33594;DHT22;19920;52.242;20.940;2023-06-22T06:32:57;22.00;99.90
33594;DHT22;19920;52.242;20.940;2023-06-22T06:35:23;21.90;99.90
33594;DHT22;19920;52.242;20.940;2023-06-22T06:37:50;22.10;99.90
33594;DHT22;19920;52.242;20.940;2023-06-22T06:40:17;22.20;99.90
33594;DHT22;19920;52.242;20.940;2023-06-22T06:42:45;22.40;99.90
33594;DHT22;19920;52.242;20.940;2023-06-22T06:45:31;22.80;99.90
33594;DHT22;19920;52.242;20.940;2023-06-22T06:47:58;22.80;99.90
33594;DHT22;19920;52.242;20.940;2023-06-22T06:50:24;22.80;99.90
33594;DHT22;19920;52.242;20.940;2023-06-22T06:52:49;22.80;99.90
33594;DHT22;19920;52.242;20.940;2023-06-22T06:55:16;22.90;99.90
33594;DHT22;19920;52.242;20.940;2023-06-22T06:57:42;22.60;99.90
33594;DHT22;19920;52.242;20.940;2023-06-22T07:00:10;22.50;99.90
33594;DHT22;19920;52.242;20.940;2023-06-22T07:02:39;22.50;99.90
33594;DHT22;19920;52.242;20.940;2023-06-22T07:05:05;22.60;99.90
33594;DHT22;19920;52.242;20.940;2023-06-22T07:07:32;22.60;99.90
33594;DHT22;19920;52.242;20.940;2023-06-22T07:09:58;22.80;99.90
33594;DHT22;19920;52.242;20.940;2023-06-22T07:12:24;22.90;99.90
33594;DHT22;19920;52.242;20.940;2023-06-22T07:14:50;22.80;99.90
33594;DHT22;19920;52.242;20.940;2023-06-22T07:17:16;22.90;99.90
33594;DHT22;19920;52.242;20.940;2023-06-22T07:19:42;23.10;99.90
33594;DHT22;19920;52.242;20.940;2023-06-22T07:22:08;23.20;99.90
33594;DHT22;19920;52.242;20.940;2023-06-22T07:24:33;23.30;99.90
33594;DHT22;19920;52.242;20.940;2023-06-22T07:26:59;23.10;99.90
33594;DHT22;19920;52.242;20.940;2023-06-22T07:29:25;23.00;99.90
33594;DHT22;19920;52.242;20.940;2023-06-22T07:31:52;23.10;99.90
33594;DHT22;19920;52.242;20.940;2023-06-22T07:34:18;23.40;99.90
33594;DHT22;19920;52.242;20.940;2023-06-22T07:36:45;23.40;99.90
33594;DHT22;19920;52.242;20.940;2023-06-22T07:39:11;23.50;99.90
33594;DHT22;19920;52.242;20.940;2023-06-22T07:41:39;23.70;99.90
33594;DHT22;19920;52.242;20.940;2023-06-22T07:44:06;23.70;99.90
33594;DHT22;19920;52.242;20.940;2023-06-22T07:46:32;23.60;99.90
33594;DHT22;19920;52.242;20.940;2023-06-22T07:48:57;23.50;99.90
33594;DHT22;19920;52.242;20.940;2023-06-22T07:51:25;23.50;99.90
33594;DHT22;19920;52.242;20.940;2023-06-22T07:53:50;23.60;99.90
33594;DHT22;19920;52.242;20.940;2023-06-22T07:56:16;23.90;99.90
33594;DHT22;19920;52.242;20.940;2023-06-22T07:58:46;23.90;99.90
33594;DHT22;19920;52.242;20.940;2023-06-22T08:01:16;24.00;99.90
33594;DHT22;19920;52.242;20.940;2023-06-22T08:03:42;23.90;99.90
33594;DHT22;19920;52.242;20.940;2023-06-22T08:06:08;24.00;99.90
33594;DHT22;19920;52.242;20.940;2023-06-22T08:08:35;24.20;99.90
33594;DHT22;19920;52.242;20.940;2023-06-22T08:11:01;24.10;99.90
33594;DHT22;19920;52.242;20.940;2023-06-22T08:13:26;24.30;99.90
33594;DHT22;19920;52.242;20.940;2023-06-22T08:15:52;24.30;99.90
33594;DHT22;19920;52.242;20.940;2023-06-22T08:18:17;24.30;99.90
33594;DHT22;19920;52.242;20.940;2023-06-22T08:20:43;24.30;99.90
33594;DHT22;19920;52.242;20.940;2023-06-22T08:23:09;24.30;99.90
33594;DHT22;19920;52.242;20.940;2023-06-22T08:25:35;24.50;99.90
33594;DHT22;19920;52.242;20.940;2023-06-22T08:28:01;24.40;99.90
33594;DHT22;19920;52.242;20.940;2023-06-22T08:30:27;24.40;99.90
33594;DHT22;19920;52.242;20.940;2023-06-22T08:32:53;24.50;99.90
33594;DHT22;19920;52.242;20.940;2023-06-22T08:35:21;24.50;99.90
33594;DHT22;19920;52.242;20.940;2023-06-22T08:37:47;24.40;99.90
33594;DHT22;19920;52.242;20.940;2023-06-22T08:40:18;24.50;99.90
33594;DHT22;19920;52.242;20.940;2023-06-22T08:42:45;24.60;99.90
33594;DHT22;19920;52.242;20.940;2023-06-22T08:45:12;24.70;99.90
33594;DHT22;19920;52.242;20.940;2023-06-22T08:47:38;24.80;99.90
33594;DHT22;19920;52.242;20.940;2023-06-22T08:50:05;24.90;99.90
33594;DHT22;19920;52.242;20.940;2023-06-22T08:52:31;24.90;99.90
33594;DHT22;19920;52.242;20.940;2023-06-22T08:54:56;25.00;99.90
33594;DHT22;19920;52.242;20.940;2023-06-22T08:57:23;25.00;99.90
33594;DHT22;19920;52.242;20.940;2023-06-22T08:59:49;25.00;99.90
33594;DHT22;19920;52.242;20.940;2023-06-22T09:02:17;25.10;99.90
33594;DHT22;19920;52.242;20.940;2023-06-22T09:04:43;25.10;99.90
33594;DHT22;19920;52.242;20.940;2023-06-22T09:07:10;25.00;99.90
33594;DHT22;19920;52.242;20.940;2023-06-22T09:09:36;25.30;99.90
33594;DHT22;19920;52.242;20.940;2023-06-22T09:12:02;25.40;99.90
33594;DHT22;19920;52.242;20.940;2023-06-22T09:14:28;25.40;99.90
33594;DHT22;19920;52.242;20.940;2023-06-22T09:16:54;25.50;99.90
33594;DHT22;19920;52.242;20.940;2023-06-22T09:19:19;25.50;99.90
33594;DHT22;19920;52.242;20.940;2023-06-22T09:21:45;25.40;99.90
33594;DHT22;19920;52.242;20.940;2023-06-22T09:24:10;25.60;99.90
33594;DHT22;19920;52.242;20.940;2023-06-22T09:26:36;25.70;99.90
33594;DHT22;19920;52.242;20.940;2023-06-22T09:29:05;25.80;99.90
33594;DHT22;19920;52.242;20.940;2023-06-22T09:31:31;25.80;99.90
33594;DHT22;19920;52.242;20.940;2023-06-22T09:33:56;25.80;99.90
33594;DHT22;19920;52.242;20.940;2023-06-22T09:36:22;25.70;99.90
33594;DHT22;19920;52.242;20.940;2023-06-22T09:38:48;25.70;99.90
33594;DHT22;19920;52.242;20.940;2023-06-22T09:41:14;25.70;99.90
33594;DHT22;19920;52.242;20.940;2023-06-22T09:43:40;25.80;99.90
33594;DHT22;19920;52.242;20.940;2023-06-22T09:46:06;25.90;99.90
33594;DHT22;19920;52.242;20.940;2023-06-22T09:48:32;25.90;99.90
33594;DHT22;19920;52.242;20.940;2023-06-22T09:50:58;26.00;99.90
33594;DHT22;19920;52.242;20.940;2023-06-22T09:53:23;26.00;99.90
33594;DHT22;19920;52.242;20.940;2023-06-22T09:55:49;26.00;99.90
33594;DHT22;19920;52.242;20.940;2023-06-22T09:58:15;26.00;99.90
33594;DHT22;19920;52.242;20.940;2023-06-22T10:00:40;26.10;99.90
33594;DHT22;19920;52.242;20.940;2023-06-22T10:03:07;26.40;99.90
33594;DHT22;19920;52.242;20.940;2023-06-22T10:05:33;26.40;99.90
33594;DHT22;19920;52.242;20.940;2023-06-22T10:07:58;26.40;99.90
33594;DHT22;19920;52.242;20.940;2023-06-22T10:10:24;26.50;99.90
33594;DHT22;19920;52.242;20.940;2023-06-22T10:12:57;26.50;99.90
33594;DHT22;19920;52.242;20.940;2023-06-22T10:15:23;26.50;99.90
33594;DHT22;19920;52.242;20.940;2023-06-22T10:17:49;26.70;99.90
33594;DHT22;19920;52.242;20.940;2023-06-22T10:20:14;26.60;99.90
33594;DHT22;19920;52.242;20.940;2023-06-22T10:22:44;26.70;99.90
33594;DHT22;19920;52.242;20.940;2023-06-22T10:25:11;26.80;99.90
33594;DHT22;19920;52.242;20.940;2023-06-22T10:27:37;26.80;99.90
33594;DHT22;19920;52.242;20.940;2023-06-22T10:30:10;26.90;99.90
33594;DHT22;19920;52.242;20.940;2023-06-22T10:32:38;27.00;99.90
33594;DHT22;19920;52.242;20.940;2023-06-22T10:35:05;27.10;99.90
33594;DHT22;19920;52.242;20.940;2023-06-22T10:37:31;27.10;99.90
33594;DHT22;19920;52.242;20.940;2023-06-22T10:39:57;27.20;99.90
33594;DHT22;19920;52.242;20.940;2023-06-22T10:42:22;27.40;99.90
33594;DHT22;19920;52.242;20.940;2023-06-22T10:44:48;27.40;99.90
33594;DHT22;19920;52.242;20.940;2023-06-22T10:47:14;27.50;99.90
33594;DHT22;19920;52.242;20.940;2023-06-22T10:49:40;27.30;99.90
33594;DHT22;19920;52.242;20.940;2023-06-22T10:52:08;27.30;99.90
33594;DHT22;19920;52.242;20.940;2023-06-22T10:54:38;27.30;99.90
33594;DHT22;19920;52.242;20.940;2023-06-22T10:57:04;27.40;99.90
33594;DHT22;19920;52.242;20.940;2023-06-22T10:59:30;27.30;99.90
33594;DHT22;19920;52.242;20.940;2023-06-22T11:01:56;27.30;99.90
33594;DHT22;19920;52.242;20.940;2023-06-22T11:04:23;27.40;99.90
33594;DHT22;19920;52.242;20.940;2023-06-22T11:06:49;27.50;99.90
33594;DHT22;19920;52.242;20.940;2023-06-22T11:09:15;27.70;99.90
33594;DHT22;19920;52.242;20.940;2023-06-22T11:11:47;27.80;99.90
33594;DHT22;19920;52.242;20.940;2023-06-22T11:14:16;27.80;99.90
33594;DHT22;19920;52.242;20.940;2023-06-22T11:16:42;28.10;99.90
33594;DHT22;19920;52.242;20.940;2023-06-22T11:19:08;27.80;99.90
33594;DHT22;19920;52.242;20.940;2023-06-22T11:21:34;27.70;99.90
33594;DHT22;19920;52.242;20.940;2023-06-22T11:23:59;27.80;99.90
33594;DHT22;19920;52.242;20.940;2023-06-22T11:26:25;28.00;99.90
33594;DHT22;19920;52.242;20.940;2023-06-22T11:28:55;27.90;99.90
33594;DHT22;19920;52.242;20.940;2023-06-22T11:31:20;27.90;99.90
33594;DHT22;19920;52.242;20.940;2023-06-22T11:33:46;27.90;99.90
33594;DHT22;19920;52.242;20.940;2023-06-22T11:36:13;27.90;99.90
33594;DHT22;19920;52.242;20.940;2023-06-22T11:38:39;28.20;99.90
33594;DHT22;19920;52.242;20.940;2023-06-22T11:41:06;28.30;99.90
33594;DHT22;19920;52.242;20.940;2023-06-22T11:43:31;28.40;99.90
33594;DHT22;19920;52.242;20.940;2023-06-22T11:45:57;28.70;99.90
33594;DHT22;19920;52.242;20.940;2023-06-22T11:48:26;29.00;99.90
33594;DHT22;19920;52.242;20.940;2023-06-22T11:50:51;29.00;99.90
33594;DHT22;19920;52.242;20.940;2023-06-22T11:53:17;28.90;99.90
33594;DHT22;19920;52.242;20.940;2023-06-22T11:55:44;28.60;99.90
33594;DHT22;19920;52.242;20.940;2023-06-22T11:58:10;28.60;99.90
33594;DHT22;19920;52.242;20.940;2023-06-22T12:00:37;28.40;99.90
33594;DHT22;19920;52.242;20.940;2023-06-22T12:03:03;28.60;99.90
33594;DHT22;19920;52.242;20.940;2023-06-22T12:05:28;28.50;99.90
33594;DHT22;19920;52.242;20.940;2023-06-22T12:07:54;28.50;99.90
33594;DHT22;19920;52.242;20.940;2023-06-22T12:10:24;28.40;99.90
33594;DHT22;19920;52.242;20.940;2023-06-22T12:12:50;28.20;99.90
33594;DHT22;19920;52.242;20.940;2023-06-22T12:15:16;28.30;99.90
33594;DHT22;19920;52.242;20.940;2023-06-22T12:17:41;28.40;99.90
33594;DHT22;19920;52.242;20.940;2023-06-22T12:20:07;28.70;99.90
33594;DHT22;19920;52.242;20.940;2023-06-22T12:22:34;28.90;99.90
33594;DHT22;19920;52.242;20.940;2023-06-22T12:25:00;29.10;99.90
33594;DHT22;19920;52.242;20.940;2023-06-22T12:27:26;29.10;99.90
33594;DHT22;19920;52.242;20.940;2023-06-22T12:29:51;29.20;99.90
33594;DHT22;19920;52.242;20.940;2023-06-22T12:32:17;28.90;99.90
33594;DHT22;19920;52.242;20.940;2023-06-22T12:34:43;28.70;99.90
33594;DHT22;19920;52.242;20.940;2023-06-22T12:37:09;28.50;99.90
33594;DHT22;19920;52.242;20.940;2023-06-22T12:39:35;28.40;99.90
33594;DHT22;19920;52.242;20.940;2023-06-22T12:42:01;28.50;99.90
33594;DHT22;19920;52.242;20.940;2023-06-22T12:44:26;28.50;99.90
33594;DHT22;19920;52.242;20.940;2023-06-22T12:46:52;28.60;99.90
33594;DHT22;19920;52.242;20.940;2023-06-22T12:49:18;28.60;99.90
33594;DHT22;19920;52.242;20.940;2023-06-22T12:51:44;28.80;99.90
33594;DHT22;19920;52.242;20.940;2023-06-22T12:54:11;29.00;99.90
33594;DHT22;19920;52.242;20.940;2023-06-22T12:56:38;29.00;99.90
33594;DHT22;19920;52.242;20.940;2023-06-22T12:59:06;29.00;99.90
33594;DHT22;19920;52.242;20.940;2023-06-22T13:01:32;29.00;99.90
33594;DHT22;19920;52.242;20.940;2023-06-22T13:03:58;28.80;99.90
33594;DHT22;19920;52.242;20.940;2023-06-22T13:06:24;28.80;99.90
33594;DHT22;19920;52.242;20.940;2023-06-22T13:08:50;29.10;99.90
33594;DHT22;19920;52.242;20.940;2023-06-22T13:11:16;29.30;99.90
33594;DHT22;19920;52.242;20.940;2023-06-22T13:13:42;29.30;99.90
33594;DHT22;19920;52.242;20.940;2023-06-22T13:16:07;29.70;99.90
33594;DHT22;19920;52.242;20.940;2023-06-22T13:18:33;29.90;99.90
33594;DHT22;19920;52.242;20.940;2023-06-22T13:21:01;30.20;99.90
33594;DHT22;19920;52.242;20.940;2023-06-22T13:23:27;30.00;99.90
33594;DHT22;19920;52.242;20.940;2023-06-22T13:25:53;30.30;99.90
33594;DHT22;19920;52.242;20.940;2023-06-22T13:28:18;30.40;99.90
33594;DHT22;19920;52.242;20.940;2023-06-22T13:30:46;30.60;99.90
33594;DHT22;19920;52.242;20.940;2023-06-22T13:33:15;30.80;99.90
33594;DHT22;19920;52.242;20.940;2023-06-22T13:35:41;31.20;99.90
33594;DHT22;19920;52.242;20.940;2023-06-22T13:38:10;31.80;99.90
33594;DHT22;19920;52.242;20.940;2023-06-22T13:40:36;32.30;99.90
33594;DHT22;19920;52.242;20.940;2023-06-22T13:43:05;31.90;99.90
33594;DHT22;19920;52.242;20.940;2023-06-22T13:45:31;32.70;99.90
33594;DHT22;19920;52.242;20.940;2023-06-22T13:47:57;32.80;99.90
33594;DHT22;19920;52.242;20.940;2023-06-22T13:50:23;32.70;99.90
33594;DHT22;19920;52.242;20.940;2023-06-22T13:52:48;33.00;99.90
33594;DHT22;19920;52.242;20.940;2023-06-22T13:55:14;33.60;99.90
33594;DHT22;19920;52.242;20.940;2023-06-22T13:57:40;34.20;99.90
33594;DHT22;19920;52.242;20.940;2023-06-22T14:00:07;34.80;99.90
33594;DHT22;19920;52.242;20.940;2023-06-22T14:02:38;33.90;99.20
33594;DHT22;19920;52.242;20.940;2023-06-22T14:05:03;33.90;99.50
33594;DHT22;19920;52.242;20.940;2023-06-22T14:07:29;34.50;99.30
33594;DHT22;19920;52.242;20.940;2023-06-22T14:09:55;33.80;98.40
33594;DHT22;19920;52.242;20.940;2023-06-22T14:12:20;33.60;97.50
33594;DHT22;19920;52.242;20.940;2023-06-22T14:14:46;34.30;97.20
33594;DHT22;19920;52.242;20.940;2023-06-22T14:17:12;33.90;96.80
33594;DHT22;19920;52.242;20.940;2023-06-22T14:19:37;34.40;96.50
33594;DHT22;19920;52.242;20.940;2023-06-22T14:22:03;33.80;96.70
33594;DHT22;19920;52.242;20.940;2023-06-22T14:24:29;33.80;97.20
33594;DHT22;19920;52.242;20.940;2023-06-22T14:26:55;33.70;97.20
33594;DHT22;19920;52.242;20.940;2023-06-22T14:29:21;34.20;97.40
33594;DHT22;19920;52.242;20.940;2023-06-22T14:31:48;33.90;96.90
33594;DHT22;19920;52.242;20.940;2023-06-22T14:34:14;33.50;97.80
33594;DHT22;19920;52.242;20.940;2023-06-22T14:36:40;32.60;98.00
33594;DHT22;19920;52.242;20.940;2023-06-22T14:39:05;32.00;99.30
33594;DHT22;19920;52.242;20.940;2023-06-22T14:41:31;32.30;99.80
33594;DHT22;19920;52.242;20.940;2023-06-22T14:43:57;32.50;99.50
33594;DHT22;19920;52.242;20.940;2023-06-22T14:46:23;32.10;98.90
33594;DHT22;19920;52.242;20.940;2023-06-22T14:48:49;31.20;99.50
33594;DHT22;19920;52.242;20.940;2023-06-22T14:51:14;31.10;99.90
33594;DHT22;19920;52.242;20.940;2023-06-22T14:53:41;30.80;99.90
33594;DHT22;19920;52.242;20.940;2023-06-22T14:56:07;30.90;99.80
33594;DHT22;19920;52.242;20.940;2023-06-22T14:58:33;30.30;99.90
33594;DHT22;19920;52.242;20.940;2023-06-22T15:01:00;31.00;99.90
33594;DHT22;19920;52.242;20.940;2023-06-22T15:03:25;31.80;99.90
33594;DHT22;19920;52.242;20.940;2023-06-22T15:05:54;32.30;99.50
33594;DHT22;19920;52.242;20.940;2023-06-22T15:08:20;32.50;98.80
33594;DHT22;19920;52.242;20.940;2023-06-22T15:10:46;33.00;99.00
33594;DHT22;19920;52.242;20.940;2023-06-22T15:13:12;32.80;98.10
33594;DHT22;19920;52.242;20.940;2023-06-22T15:15:38;32.80;98.10
33594;DHT22;19920;52.242;20.940;2023-06-22T15:18:03;32.90;96.80
33594;DHT22;19920;52.242;20.940;2023-06-22T15:20:29;33.20;96.80